»·PEaware :: N441PW KGZ-CYXY

N441PW :: KGZ-CYXY

FLIGHT INFORMATION

Flight Status: Arrived
Operator: Privately registered:
United States
More flights under this callsign
Pilot: Stacy K. (11621)
Aircraft: CESSNA 404 TITAN
(C404)
More flights by this aircraft type
Origin: KGZ Glacier Creek
United States
Destination: CYXY Whitehorse Intl
Canada
More flights between these airports :: More routes between these airports
Route: DB JB
File this flight plan on PilotEdge
Remarks:
Altitude:
(Current/Filed)
13,500ft
Speed:
(Current/Filed)
190kts
Departed: 14-Jul-19 07:07 AM
Arrived: 14-Jul-19 08:21 AM
Distance/Time
Traveled:
216nm/1:14
Distance/Time
To Go:
Arrived

Flight Plot

Page will automatically refresh every two minutes.

Flight plan parsing failed; only flown route is shown


Map Options




Map Legend


Flown Route
Filed Route
Departure Airport
Arrival Airport
Navaid (VOR, NDB)
Fix

Horizontal Profiles

Position Reports

Time Latitude Longitude Heading Altitude Ground
Speed
14-Jul-19 07:02 61.453140 -142.377578 302 2355ft 0kts
14-Jul-19 07:03 61.453140 -142.377578 302 2355ft 0kts
14-Jul-19 07:04 61.453140 -142.377578 302 2355ft 0kts
14-Jul-19 07:05 61.453140 -142.377578 302 2355ft 0kts
14-Jul-19 07:06 61.460575 -142.407362 267 2892ft 113kts
14-Jul-19 07:07 61.457372 -142.487128 254 3963ft 165kts
14-Jul-19 07:08 61.457550 -142.581211 331 4973ft 184kts
14-Jul-19 07:09 61.506363 -142.566858 22 5991ft 174kts
14-Jul-19 07:10 61.549741 -142.520691 28 6803ft 175kts
14-Jul-19 07:11 61.591247 -142.465724 37 7610ft 179kts
14-Jul-19 07:12 61.633040 -142.406731 35 8427ft 185kts
14-Jul-19 07:13 61.658310 -142.320505 84 9209ft 179kts
14-Jul-19 07:14 61.658891 -142.215640 95 10010ft 179kts
14-Jul-19 07:15 61.656230 -142.110543 93 10809ft 181kts
14-Jul-19 07:16 61.641276 -142.009337 114 11614ft 182kts
14-Jul-19 07:17 61.620239 -141.912249 115 12412ft 182kts
14-Jul-19 07:18 61.595892 -141.818796 121 13212ft 182kts
14-Jul-19 07:19 61.567687 -141.725016 125 13502ft 199kts
14-Jul-19 07:20 61.534914 -141.628453 125 13501ft 204kts
14-Jul-19 07:21 61.501228 -141.532286 129 13502ft 205kts
14-Jul-19 07:23 61.460850 -141.448637 139 13504ft 204kts
14-Jul-19 07:24 61.431294 -141.349735 102 13506ft 207kts
14-Jul-19 07:25 61.425541 -141.229814 94 13506ft 207kts
14-Jul-19 07:26 61.422016 -141.109658 94 13507ft 207kts
14-Jul-19 07:27 61.418311 -140.989306 94 13508ft 207kts
14-Jul-19 07:28 61.414461 -140.868631 94 13509ft 208kts
14-Jul-19 07:29 61.410501 -140.747912 94 13500ft 209kts
14-Jul-19 07:30 61.406426 -140.627032 95 13501ft 209kts
14-Jul-19 07:31 61.402232 -140.505638 95 13502ft 210kts
14-Jul-19 07:32 61.397895 -140.384019 95 13503ft 210kts
14-Jul-19 07:33 61.393489 -140.262702 95 13500ft 209kts
14-Jul-19 07:34 61.388987 -140.141682 95 13501ft 209kts
14-Jul-19 07:35 61.384344 -140.020353 95 13501ft 209kts
14-Jul-19 07:36 61.379617 -139.899572 95 13500ft 209kts
14-Jul-19 07:37 61.374748 -139.777925 95 13482ft 210kts
14-Jul-19 07:38 61.369769 -139.656269 95 13363ft 215kts
14-Jul-19 07:39 61.364454 -139.529209 95 12696ft 223kts
14-Jul-19 07:40 61.358926 -139.399937 95 12020ft 223kts
14-Jul-19 07:40 61.354265 -139.293229 95 11458ft 221kts
14-Jul-19 07:42 61.347613 -139.144235 95 10669ft 220kts
14-Jul-19 07:42 61.342812 -139.038970 95 10107ft 218kts
14-Jul-19 07:43 61.331425 -138.915807 103 9515ft 213kts
14-Jul-19 07:45 61.315059 -138.780767 103 9484ft 203kts
14-Jul-19 07:45 61.303899 -138.689897 104 9485ft 202kts
14-Jul-19 07:46 61.289929 -138.577135 104 9485ft 202kts
14-Jul-19 07:48 61.273408 -138.444895 104 9486ft 203kts
14-Jul-19 07:48 61.261491 -138.350280 104 9486ft 203kts
14-Jul-19 07:49 61.247158 -138.237167 104 9486ft 203kts
14-Jul-19 07:50 61.232643 -138.123500 104 9487ft 203kts
14-Jul-19 07:51 61.218057 -138.010163 104 9487ft 203kts
14-Jul-19 07:52 61.203377 -137.896889 105 9489ft 203kts
14-Jul-19 07:53 61.188592 -137.783657 104 9489ft 203kts
14-Jul-19 07:54 61.173768 -137.670478 104 9489ft 203kts
14-Jul-19 07:55 61.158832 -137.557416 105 9490ft 203kts
14-Jul-19 07:56 61.143730 -137.444223 105 9490ft 203kts
14-Jul-19 07:57 61.128568 -137.331435 105 9491ft 203kts
14-Jul-19 07:58 61.113284 -137.218537 105 9491ft 203kts
14-Jul-19 07:59 61.097984 -137.106329 105 9493ft 202kts
14-Jul-19 08:00 61.082618 -136.994421 105 9493ft 202kts
14-Jul-19 08:01 61.067151 -136.882541 106 9493ft 202kts
14-Jul-19 08:02 61.051609 -136.770653 105 9496ft 202kts
14-Jul-19 08:03 61.035994 -136.658843 106 9494ft 202kts
14-Jul-19 08:04 61.020114 -136.547230 106 9498ft 203kts
14-Jul-19 08:05 61.004144 -136.435034 106 9388ft 207kts
14-Jul-19 08:06 60.987460 -136.318248 106 8804ft 212kts
14-Jul-19 08:07 60.970721 -136.201915 107 8300ft 210kts
14-Jul-19 08:08 60.954056 -136.086675 107 7802ft 209kts
14-Jul-19 08:09 60.937160 -135.972018 107 7248ft 211kts
14-Jul-19 08:10 60.920211 -135.856761 107 6548ft 210kts
14-Jul-19 08:11 60.903232 -135.741954 108 5848ft 208kts
14-Jul-19 08:12 60.886427 -135.629029 107 5308ft 201kts
14-Jul-19 08:13 60.870359 -135.522318 108 5294ft 193kts
14-Jul-19 08:14 60.854540 -135.417219 105 5302ft 192kts
14-Jul-19 08:15 60.866858 -135.311229 69 5304ft 195kts
14-Jul-19 08:16 60.870360 -135.205291 125 5061ft 201kts
14-Jul-19 08:17 60.821286 -135.153954 159 4234ft 200kts
14-Jul-19 08:18 60.772350 -135.115774 160 3474ft 176kts
14-Jul-19 08:19 60.732800 -135.085082 160 2639ft 125kts
14-Jul-19 08:20 60.710049 -135.067757 157 2321ft 28kts
14-Jul-19 08:21 60.703338 -135.062453 159 2321ft 16kts
14-Jul-19 08:22 60.702633 -135.065549 332 2321ft 17kts
14-Jul-19 08:23 60.706944 -135.068683 339 2321ft 19kts
14-Jul-19 08:24 60.713082 -135.073132 341 2321ft 23kts
14-Jul-19 08:25 60.714883 -135.074627 290 2321ft 2kts
14-Jul-19 08:26 60.714741 -135.075538 251 2321ft 0kts
14-Jul-19 08:27 60.714741 -135.075538 251 2321ft 0kts
14-Jul-19 08:28 60.714741 -135.075538 251 2321ft 0kts
14-Jul-19 08:29 60.714741 -135.075538 251 2321ft 0kts
14-Jul-19 08:30 60.714741 -135.075538 251 2321ft 0kts
14-Jul-19 08:31 60.714741 -135.075538 251 2321ft 0kts
14-Jul-19 08:32 60.714741 -135.075538 251 2321ft 0kts
14-Jul-19 08:33 60.714741 -135.075538 251 2321ft 0kts
14-Jul-19 08:34 60.714741 -135.075538 251 2321ft 0kts

Navigation Log

Ident Type
Flight plan parsing failed, navigation log unavailable